Tropical Cyclones
[Index]
Main Index Home Page Stock Weather Photos Extreme Storms Discussion Storm News and Storm Chasing Reports Tropical Cyclones / Hurricanes / Typhoons Weather Data and Links Wild Fires / Bushfires Weather Observation Techniques Weather Picture Catalogue Tornado Pictures and Reports Stock Video Footage and DVDs for sale
Season 2014-2015 Tropical Cyclone LAM Track Map
Season 2014-2015 Summaries: [BoM-AU] [JTWC-AU] [JTWC-SIO] [JTWC-SPAC] [JTWC-SH]
<<- Previous TC | JTWC 2014-2015 Season | Next TC ->>

click for intensity scale information  Lat/long Grid: Show Hide

 Date Labels: Show Hide

Joint Typhoon Warning Centre Cyclone Data

Name: LAM

16 Feb 2015 06:00 UTC to 20 Feb 2015 12:00 UTC

    date/time    lat    long     hPa   cat  kts
2015-02-16 06   11.6   140.0    1004         25          
2015-02-16 12   11.5   139.7    1000         30          
2015-02-16 18   11.5   139.5     996         35          
2015-02-17 00   11.4   139.2     989    1    45          
2015-02-17 06   11.4   138.8     982    2    55          
2015-02-17 06   11.4   138.8     982    2    55          
2015-02-17 12   11.4   138.5     978    2    60          
2015-02-17 12   11.4   138.5     978    2    60          
2015-02-17 18   11.3   137.8     978    2    60          
2015-02-17 18   11.3   137.8     978    2    60          
2015-02-18 00   11.2   137.2     974    2    65          
2015-02-18 00   11.2   137.2     974    2    65          
2015-02-18 06   11.0   136.7     970    2    70          
2015-02-18 06   11.0   136.7     970    2    70          
2015-02-18 12   11.0   136.4     970    2    70          
2015-02-18 12   11.0   136.4     970    2    70          
2015-02-18 12   11.0   136.4     970    2    70          
2015-02-18 18   11.2   136.1     967    3    75          
2015-02-18 18   11.2   136.1     967    3    75          
2015-02-18 18   11.2   136.1     967    3    75          
2015-02-19 00   11.4   135.9     963    3    80          
2015-02-19 00   11.4   135.9     963    3    80          
2015-02-19 00   11.4   135.9     963    3    80          
2015-02-19 06   11.7   135.7     956    3    90          
2015-02-19 06   11.7   135.7     956    3    90          
2015-02-19 06   11.7   135.7     956    3    90          
2015-02-19 12   12.0   135.3     948    4   100          
2015-02-19 12   12.0   135.3     948    4   100          
2015-02-19 12   12.0   135.3     948    4   100          
2015-02-19 18   12.4   135.0     974    2    65          
2015-02-19 18   12.4   135.0     974    2    65          
2015-02-19 18   12.4   135.0     974    2    65          
2015-02-20 00   13.0   134.6     985    1    50          
2015-02-20 06   14.0   133.9     993    1    40          
2015-02-20 12   14.7   132.9    1000         30          
Winds are 1-min average.

Tropical cyclone tracks developed by Michael Bath using data from the Joint Typhoon Warning Centre Best Tracks and Google Maps.


[Australian Severe Weather index] [Copyright Notice] [Email Contacts] [Search This Site] [Privacy Policy]
Document: tropical_cyclone_lam.htm Updated: 28 June 2017